Fairfield, IL

12:07 PM CDT on August 30, 2014 (GMT -0500)
Flora Municipal | Change Station
CLOSE
Current Station
Airport
Location: Flora,
Elevation: 472 ft
Nearby Weather Stations

Elev 472 ft 38.67 °N, 88.45 °W | Updated 12 minutes ago

Clear
Clear
77 °F
Feels Like 77 °F
N
10
Wind Variable Wind from SW
Gusts 17 mph

Today
High -- | Low -- °F
--% Chance of Precip.
Yesterday
High -- | Low -- °F
Precip. -- in
6:21 AM 7:26 PM
Waxing Crescent, 23% visible
Pressure 30.01 in
Visibility 10.0 miles
Clouds Clear
Dew Point 70 °F
Humidity 79%
Rainfall 0.20 in
Snow Depth Not available.
UV 9 out of 12
Pollen 7.30 out of 12
Air Quality Not available.
Flu Activity Not available.
METAR KFOA 301655Z AUTO 22009G15KT 10SM CLR 25/21 A3001 RMK AO2 T02500212

More Conditions Fewer Conditions

Pressure 30.01 in
Visibility 10.0 miles
Clouds Clear
Dew Point 70 °F
Humidity 79%
Rainfall 0.20 in
Snow Depth Not available.
UV 9 out of 12
Pollen 7.30 out of 12
Air Quality Not available.
Flu Activity Not available.
METAR KFOA 301655Z AUTO 22009G15KT 10SM CLR 25/21 A3001 RMK AO2 T02500212

More Conditions Fewer Conditions

10-Day Weather Forecast

Almanac

Astronomy

Aug. 30, 2014 Rise Set
Actual Time 6:21 AM CDT 7:26 PM CDT
Civil Twilight 5:53 AM CDT 7:53 PM CDT
Nautical Twilight 5:21 AM CDT 8:25 PM CDT
Astronomical Twilight 4:47 AM CDT 8:59 PM CDT
Moon 11:04 AM CDT 10:04 PM CDT
Length of Visible Light 13h 59m
Length of Day
13h 05m
Tomorrow will be 2m 23s shorter.
Waxing Crescent, 23% of the Moon is Illuminated
Today
Waxing Crescent
Sep 2
First Quarter
Sep 8
Full
Sep 15
Last Quarter
Sep 24
New

Today's Extremes

State Highs State Lows

Community

WunderPhotos

Upload Photos

1,748,566 photos uploaded!

WunderBlogs® & News

Nearby

Snow Depth

Station Depth Elevation
No new snow has been reported.

Earthquake Activity

City Distance Mag. Time & Date
No recent earthquake activity has been reported nearby.
Minimum magnitude displayed is 2.5.

Coastal Water Temperatures

Place Temperature
No Stations Reporting

Nearby Weather Stations